Time;durP1;ratioP1;P1;durP2;ratioP2;P2;SDS_P1;SDS_P2;PMS_P1;PMS_P2;Temp;Humidity;BMP_temperature;BMP_pressure;BME280_temperature;BME280_humidity;BME280_pressure;Samples;Min_cycle;Max_cycle;Signal;HPM_P1;HPM_P2
2021/03/24 00:01:55;;;;;;;9.07;7.20;;;2.00;95.00;;;;;;5073632;28;20055;-78
2021/03/24 00:04:26;;;;;;;13.45;7.30;;;2.00;95.50;;;;;;5073115;28;20487;-77
2021/03/24 00:06:53;;;;;;;12.18;8.80;;;2.00;95.70;;;;;;5073773;28;20438;-77
2021/03/24 00:09:21;;;;;;;8.93;6.85;;;2.00;95.80;;;;;;5066584;28;20044;-77
2021/03/24 00:11:49;;;;;;;15.52;9.70;;;2.00;96.30;;;;;;5053019;28;20064;-77
2021/03/24 00:14:17;;;;;;;12.43;9.20;;;2.10;96.40;;;;;;5056013;28;20048;-77
2021/03/24 00:16:44;;;;;;;14.43;9.75;;;2.00;96.40;;;;;;5073024;28;20045;-77
2021/03/24 00:19:12;;;;;;;10.00;8.02;;;2.00;95.80;;;;;;5073044;28;20361;-78
2021/03/24 00:21:39;;;;;;;12.52;8.40;;;1.90;96.00;;;;;;5072385;28;20041;-77
2021/03/24 00:24:08;;;;;;;11.50;6.72;;;2.00;95.90;;;;;;5071127;28;20411;-77
2021/03/24 00:26:37;;;;;;;14.00;9.98;;;1.90;95.90;;;;;;5073602;28;20071;-77
2021/03/24 00:29:11;;;;;;;12.00;8.48;;;1.80;96.10;;;;;;5070257;28;20040;-82
2021/03/24 00:31:39;;;;;;;15.05;11.98;;;1.80;95.70;;;;;;5068849;28;20029;-77
2021/03/24 00:34:06;;;;;;;10.77;9.18;;;1.80;95.90;;;;;;5052350;28;20048;-77
2021/03/24 00:36:38;;;;;;;14.63;10.05;;;1.80;96.10;;;;;;5052652;28;20053;-77
2021/03/24 00:39:08;;;;;;;10.73;8.20;;;1.80;96.10;;;;;;5052454;28;20045;-78
2021/03/24 00:41:35;;;;;;;17.92;11.15;;;1.90;96.00;;;;;;5053019;28;20057;-77
2021/03/24 00:44:03;;;;;;;15.13;10.50;;;1.90;95.90;;;;;;5052506;28;20522;-77
2021/03/24 00:46:32;;;;;;;21.60;12.95;;;1.90;95.90;;;;;;5065478;28;20044;-77
2021/03/24 00:49:00;;;;;;;17.13;11.57;;;1.90;95.40;;;;;;5072466;28;20503;-77
2021/03/24 00:51:28;;;;;;;22.23;12.23;;;2.00;95.20;;;;;;5070410;28;20376;-77
2021/03/24 00:53:55;;;;;;;13.77;10.80;;;2.10;95.00;;;;;;5072380;28;20495;-77
2021/03/24 00:56:23;;;;;;;11.80;8.55;;;2.10;95.20;;;;;;5072552;28;20037;-77
2021/03/24 00:58:51;;;;;;;13.43;9.27;;;2.00;95.30;;;;;;5071948;28;20072;-77
2021/03/24 01:01:18;;;;;;;13.18;9.18;;;2.00;95.40;;;;;;5070649;28;20052;-77
2021/03/24 01:03:48;;;;;;;12.52;8.43;;;1.90;95.30;;;;;;5072083;28;20532;-77
2021/03/24 01:06:15;;;;;;;13.77;8.52;;;1.90;95.30;;;;;;5072582;28;20051;-77
2021/03/24 01:08:42;;;;;;;12.70;9.95;;;1.90;95.00;;;;;;5071461;28;20049;-77
2021/03/24 01:11:10;;;;;;;10.35;7.82;;;1.60;95.80;;;;;;5071586;28;20056;-77
2021/03/24 01:13:37;;;;;;;14.90;8.43;;;1.50;95.90;;;;;;5072615;28;20048;-77
2021/03/24 01:16:05;;;;;;;20.38;12.57;;;1.50;96.10;;;;;;5071135;28;20052;-77
2021/03/24 01:18:36;;;;;;;19.15;10.77;;;1.50;95.50;;;;;;5072405;28;20045;-77
2021/03/24 01:21:05;;;;;;;18.20;12.02;;;1.50;95.50;;;;;;5071471;28;20518;-77
2021/03/24 01:23:33;;;;;;;13.30;9.27;;;1.50;95.50;;;;;;5071307;28;20048;-77
2021/03/24 01:26:00;;;;;;;18.65;10.05;;;1.40;95.60;;;;;;5072351;28;20056;-77
2021/03/24 01:28:29;;;;;;;17.48;10.38;;;1.40;95.40;;;;;;5071743;28;20033;-77
2021/03/24 01:30:59;;;;;;;19.63;11.82;;;1.30;95.60;;;;;;5070436;27;20060;-78
2021/03/24 01:33:27;;;;;;;13.82;10.73;;;1.30;95.60;;;;;;5072121;28;20071;-77
2021/03/24 01:35:56;;;;;;;15.48;11.25;;;1.40;95.60;;;;;;5071698;28;20043;-77
2021/03/24 01:38:24;;;;;;;18.90;11.73;;;1.30;95.70;;;;;;5070942;28;20079;-77
2021/03/24 01:40:56;;;;;;;12.95;9.40;;;1.20;95.70;;;;;;5070866;28;20040;-78
2021/03/24 01:43:34;;;;;;;16.38;10.50;;;1.20;95.50;;;;;;5071535;28;20080;-77
2021/03/24 01:46:22;;;;;;;16.40;10.60;;;1.00;95.90;;;;;;5072060;28;20052;-77
2021/03/24 01:49:11;;;;;;;16.48;9.20;;;0.90;95.90;;;;;;5071301;28;20052;-77
2021/03/24 01:51:43;;;;;;;16.95;9.90;;;0.80;95.90;;;;;;5070758;28;20430;-77
2021/03/24 01:54:29;;;;;;;14.17;10.37;;;0.80;95.90;;;;;;5071128;28;20062;-77
2021/03/24 01:57:03;;;;;;;18.85;9.95;;;0.60;95.80;;;;;;5071277;28;20048;-77
2021/03/24 01:59:31;;;;;;;13.10;9.55;;;0.50;95.30;;;;;;5070831;28;20781;-77
2021/03/24 02:01:58;;;;;;;17.75;10.57;;;0.40;95.70;;;;;;5071850;28;20522;-77
2021/03/24 02:04:26;;;;;;;16.35;10.93;;;0.30;95.80;;;;;;5071141;28;20415;-77
2021/03/24 02:07:21;;;;;;;18.67;9.73;;;0.20;95.10;;;;;;5071475;28;20052;-77
2021/03/24 02:10:07;;;;;;;12.88;9.88;;;0.10;95.10;;;;;;5053557;28;20048;-77
2021/03/24 02:13:03;;;;;;;18.17;10.45;;;-0.10;95.20;;;;;;5069587;28;20055;-77
2021/03/24 02:15:39;;;;;;;19.58;11.32;;;-0.20;96.10;;;;;;5070533;28;20063;-77
2021/03/24 02:18:11;;;;;;;19.48;11.38;;;-0.20;96.40;;;;;;5069186;28;20506;-77
2021/03/24 02:21:06;;;;;;;16.33;9.57;;;-0.20;96.40;;;;;;5069231;28;20070;-77
2021/03/24 02:23:51;;;;;;;14.38;9.20;;;-0.10;95.40;;;;;;5068916;28;20037;-77
2021/03/24 02:26:45;;;;;;;16.17;10.45;;;-0.30;95.50;;;;;;5071394;28;20056;-76
2021/03/24 02:29:19;;;;;;;16.52;10.05;;;-0.40;95.40;;;;;;5066955;28;20402;-77
2021/03/24 02:31:48;;;;;;;14.82;9.80;;;-0.40;96.00;;;;;;5049201;28;20053;-77
2021/03/24 02:34:23;;;;;;;11.43;8.18;;;-0.40;96.00;;;;;;5050756;28;20494;-77
2021/03/24 02:36:53;;;;;;;11.27;8.25;;;-0.40;96.00;;;;;;5055836;28;20047;-77
2021/03/24 02:39:23;;;;;;;15.73;10.73;;;-0.40;96.30;;;;;;5069130;28;20048;-77
2021/03/24 02:41:55;;;;;;;15.07;10.23;;;-0.40;96.50;;;;;;5071217;28;20057;-77
2021/03/24 02:44:23;;;;;;;12.27;9.27;;;-0.40;96.40;;;;;;5070835;28;20041;-77
2021/03/24 02:46:52;;;;;;;16.42;9.73;;;-0.40;96.30;;;;;;5071088;28;20048;-77
2021/03/24 02:49:22;;;;;;;12.90;7.97;;;-0.50;96.10;;;;;;5070187;28;20048;-79
2021/03/24 02:51:49;;;;;;;15.18;8.25;;;-0.50;96.40;;;;;;5071055;28;20045;-77
2021/03/24 02:54:20;;;;;;;12.57;10.05;;;-0.60;96.40;;;;;;5071633;28;20064;-77
2021/03/24 02:56:50;;;;;;;11.40;8.32;;;-0.50;96.30;;;;;;5071735;27;20052;-78
2021/03/24 02:59:20;;;;;;;11.90;8.38;;;-0.50;96.20;;;;;;5071742;28;20045;-78
2021/03/24 03:02:11;;;;;;;12.52;10.38;;;-0.60;96.00;;;;;;5071816;28;20060;-78
2021/03/24 03:04:46;;;;;;;13.37;8.63;;;-0.60;96.10;;;;;;5048227;28;20883;-78
2021/03/24 03:07:24;;;;;;;13.35;8.85;;;-0.60;95.90;;;;;;5051962;28;20061;-78
2021/03/24 03:09:59;;;;;;;16.13;11.18;;;-0.60;95.90;;;;;;5051644;28;20088;-78
2021/03/24 03:12:52;;;;;;;12.43;7.43;;;-0.40;96.20;;;;;;5060161;28;20053;-78
2021/03/24 03:15:30;;;;;;;11.38;7.75;;;-0.60;96.00;;;;;;5070916;28;20049;-78
2021/03/24 03:18:07;;;;;;;11.25;7.93;;;-0.60;96.00;;;;;;5070641;28;20049;-78
2021/03/24 03:20:43;;;;;;;13.07;8.25;;;-0.50;96.10;;;;;;5051258;28;20048;-78
2021/03/24 03:23:17;;;;;;;11.00;8.35;;;-0.50;96.00;;;;;;5036118;28;20049;-78
2021/03/24 03:25:57;;;;;;;9.90;8.18;;;-0.50;96.00;;;;;;5055531;28;20064;-78
2021/03/24 03:28:29;;;;;;;10.60;7.65;;;-0.40;96.10;;;;;;5054985;28;20487;-78
2021/03/24 03:30:58;;;;;;;21.20;10.07;;;-0.40;96.10;;;;;;5037212;28;20812;-78
2021/03/24 03:33:32;;;;;;;11.77;10.23;;;-0.30;96.00;;;;;;5055206;28;20099;-78
2021/03/24 03:36:01;;;;;;;14.80;8.45;;;-0.30;96.10;;;;;;5053379;28;20049;-78
2021/03/24 03:38:31;;;;;;;18.40;10.40;;;-0.20;96.20;;;;;;5073795;28;20052;-78
2021/03/24 03:41:01;;;;;;;15.13;8.68;;;-0.20;96.30;;;;;;5074757;28;20047;-78
2021/03/24 03:43:29;;;;;;;15.07;10.35;;;-0.20;95.60;;;;;;5074786;28;20040;-78
2021/03/24 03:46:00;;;;;;;16.02;10.23;;;-0.20;95.50;;;;;;5075500;28;20060;-78
2021/03/24 03:48:34;;;;;;;15.77;9.82;;;-0.30;95.50;;;;;;5074786;28;20040;-78
2021/03/24 03:51:06;;;;;;;11.10;8.82;;;-0.30;95.90;;;;;;5074533;28;20061;-78
2021/03/24 03:53:39;;;;;;;10.05;6.57;;;-0.40;96.30;;;;;;5070291;28;20045;-82
2021/03/24 03:56:14;;;;;;;9.45;8.35;;;-0.40;96.40;;;;;;5054603;28;20522;-81
2021/03/24 03:59:04;;;;;;;11.00;9.45;;;-0.40;96.60;;;;;;5055523;28;20476;-81
2021/03/24 04:01:39;;;;;;;16.48;11.50;;;-0.40;96.80;;;;;;5035501;28;20052;-81
2021/03/24 04:04:17;;;;;;;17.02;10.00;;;-0.30;96.70;;;;;;5054450;28;20045;-81
2021/03/24 04:06:52;;;;;;;21.30;9.38;;;-0.30;96.90;;;;;;5057821;28;20048;-81
2021/03/24 04:09:20;;;;;;;13.45;8.50;;;-0.10;97.00;;;;;;5074234;28;20416;-81
2021/03/24 04:11:52;;;;;;;14.35;9.18;;;-0.20;97.00;;;;;;5073103;28;20060;-81
2021/03/24 04:14:25;;;;;;;14.45;8.55;;;-0.10;96.90;;;;;;5074799;28;20067;-81
2021/03/24 04:16:53;;;;;;;;;;;-0.10;96.80;;;;;;5074531;28;20518;-81
2021/03/24 04:19:26;;;;;;;15.73;8.68;;;-0.10;96.70;;;;;;5074040;28;19926;-82
2021/03/24 04:21:59;;;;;;;12.32;8.00;;;-0.20;97.20;;;;;;5066043;28;20048;-80
2021/03/24 04:24:35;;;;;;;12.10;9.27;;;-0.10;97.30;;;;;;5054183;28;20049;-76
2021/03/24 04:27:03;;;;;;;18.65;11.77;;;-0.10;97.40;;;;;;5070730;28;20053;-76
2021/03/24 04:29:52;;;;;;;13.82;8.27;;;-0.10;97.30;;;;;;5068179;28;20049;-76
2021/03/24 04:32:22;;;;;;;14.23;10.82;;;0.00;97.10;;;;;;5059289;28;20049;-76
2021/03/24 04:34:52;;;;;;;17.50;8.32;;;0.00;97.00;;;;;;5063647;28;20060;-76
2021/03/24 04:37:32;;;;;;;14.77;10.13;;;0.00;96.90;;;;;;5053735;28;20049;-78
2021/03/24 04:40:18;;;;;;;21.48;11.85;;;0.00;96.80;;;;;;5071810;28;20059;-78
2021/03/24 04:43:14;;;;;;;23.27;13.60;;;0.00;96.70;;;;;;5073788;28;20060;-78
2021/03/24 04:45:53;;;;;;;17.77;13.43;;;0.10;96.80;;;;;;5036762;28;20051;-78
2021/03/24 04:48:26;;;;;;;14.63;9.95;;;0.10;96.80;;;;;;5073746;28;20815;-78
2021/03/24 04:51:04;;;;;;;13.00;10.15;;;0.00;96.60;;;;;;5074248;28;20052;-78
2021/03/24 04:53:45;;;;;;;16.27;8.85;;;-0.10;96.70;;;;;;5070337;28;20048;-78
2021/03/24 04:56:17;;;;;;;14.07;9.40;;;-0.10;96.80;;;;;;5071935;28;20033;-78
2021/03/24 04:58:56;;;;;;;17.52;9.93;;;-0.10;96.90;;;;;;5072316;28;20048;-78
2021/03/24 05:01:45;;;;;;;18.10;12.27;;;-0.10;97.10;;;;;;5071134;28;20037;-78
2021/03/24 05:04:24;;;;;;;21.45;15.40;;;-0.10;97.00;;;;;;5073255;28;20395;-78
2021/03/24 05:06:57;;;;;;;20.67;12.05;;;-0.10;96.90;;;;;;5073657;28;20486;-76
2021/03/24 05:09:24;;;;;;;14.27;11.77;;;-0.10;97.20;;;;;;5071242;28;20044;-76
2021/03/24 05:12:03;;;;;;;20.77;11.63;;;-0.10;97.10;;;;;;5071714;28;20127;-76
2021/03/24 05:14:42;;;;;;;14.38;10.00;;;-0.20;97.10;;;;;;5070553;28;20516;-76
2021/03/24 05:17:32;;;;;;;14.25;9.73;;;-0.30;96.90;;;;;;5070593;28;20076;-76
2021/03/24 05:20:11;;;;;;;17.92;13.43;;;-0.30;97.40;;;;;;5071174;28;20627;-76
2021/03/24 05:22:45;;;;;;;17.02;12.43;;;-0.30;97.80;;;;;;5070009;28;20049;-76
2021/03/24 05:25:42;;;;;;;17.05;10.75;;;-0.30;97.30;;;;;;5052473;28;20060;-76
2021/03/24 05:28:17;;;;;;;16.35;10.60;;;-0.30;97.20;;;;;;5071542;28;20055;-76
2021/03/24 05:30:55;;;;;;;14.73;10.80;;;-0.40;97.30;;;;;;5070297;28;20052;-76
2021/03/24 05:33:29;;;;;;;18.45;11.25;;;-0.50;97.80;;;;;;5070652;28;20048;-76
2021/03/24 05:35:56;;;;;;;16.35;10.30;;;-0.50;98.60;;;;;;5058449;28;20045;-76
2021/03/24 05:38:36;;;;;;;16.23;10.93;;;-0.50;98.50;;;;;;5060446;28;20059;-76
2021/03/24 05:41:16;;;;;;;18.52;11.43;;;-0.50;97.30;;;;;;5069897;28;20047;-77
2021/03/24 05:44:05;;;;;;;20.08;13.27;;;-0.60;97.60;;;;;;5053601;28;20041;-76
2021/03/24 05:46:45;;;;;;;18.85;11.60;;;-0.50;98.10;;;;;;5070159;28;20524;-76
2021/03/24 05:49:28;;;;;;;19.50;12.65;;;-0.40;98.30;;;;;;5069636;28;20048;-76
2021/03/24 05:52:28;;;;;;;14.65;10.00;;;-0.40;98.50;;;;;;5070809;28;20684;-76
2021/03/24 05:55:25;;;;;;;19.48;13.70;;;-0.30;98.50;;;;;;5054564;28;20060;-76
2021/03/24 05:58:13;;;;;;;20.15;13.52;;;-0.20;98.30;;;;;;5062035;28;20045;-76
2021/03/24 06:00:52;;;;;;;18.30;12.88;;;-0.20;97.90;;;;;;5050668;28;20037;-77
2021/03/24 06:03:28;;;;;;;;;;;-0.30;96.80;;;;;;5051077;28;20044;-77
2021/03/24 06:06:14;;;;;;;20.25;15.32;;;-0.20;97.30;;;;;;5051695;28;19931;-77
2021/03/24 06:09:05;;;;;;;18.38;10.77;;;-0.10;97.00;;;;;;5050656;28;20048;-78
2021/03/24 06:11:51;;;;;;;18.45;12.15;;;0.00;96.50;;;;;;5066450;28;20400;-78
2021/03/24 06:14:40;;;;;;;21.35;13.70;;;0.10;96.40;;;;;;5053402;28;20515;-78
2021/03/24 06:17:34;;;;;;;15.30;11.85;;;0.20;97.20;;;;;;5071560;28;20091;-78
2021/03/24 06:20:12;;;;;;;14.52;9.80;;;0.50;97.70;;;;;;5069905;28;20044;-77
2021/03/24 06:23:30;;;;;;;24.55;13.85;;;0.80;97.20;;;;;;5061577;28;20061;-77
2021/03/24 06:26:18;;;;;;;24.52;14.77;;;1.20;96.40;;;;;;5035520;28;20048;-76
2021/03/24 06:29:25;;;;;;;21.15;14.27;;;1.70;95.10;;;;;;5058014;28;20523;-78
2021/03/24 06:32:10;;;;;;;20.48;13.40;;;2.40;93.00;;;;;;5051021;28;20056;-78
2021/03/24 06:34:56;;;;;;;20.25;13.85;;;3.20;91.10;;;;;;5051591;28;20515;-77
2021/03/24 06:37:32;;;;;;;25.88;13.15;;;3.80;89.60;;;;;;5068147;28;20048;-78
2021/03/24 06:40:09;;;;;;;18.75;14.90;;;4.50;85.30;;;;;;5050906;28;20049;-78
2021/03/24 06:42:45;;;;;;;17.80;11.57;;;5.20;81.90;;;;;;5051256;28;20482;-78
2021/03/24 06:45:50;;;;;;;23.20;13.18;;;5.60;76.40;;;;;;5051204;28;20041;-78
2021/03/24 06:48:20;;;;;;;13.98;12.43;;;5.90;74.20;;;;;;5051075;28;20049;-78
2021/03/24 06:51:09;;;;;;;14.52;10.60;;;5.90;72.20;;;;;;5049791;28;20514;-78
2021/03/24 06:54:08;;;;;;;20.73;11.27;;;6.20;72.90;;;;;;5032423;28;20052;-78
2021/03/24 06:57:00;;;;;;;19.85;12.90;;;6.90;71.50;;;;;;5049425;28;20067;-77
2021/03/24 06:59:52;;;;;;;27.27;11.95;;;7.50;67.80;;;;;;5068134;28;20044;-77
2021/03/24 07:02:38;;;;;;;14.70;11.52;;;7.80;65.60;;;;;;5075245;28;20553;-78
2021/03/24 07:05:25;;;;;;;21.67;11.50;;;7.90;63.40;;;;;;5074207;28;20051;-78
2021/03/24 07:08:11;;;;;;;15.52;10.48;;;8.30;62.70;;;;;;5074371;28;20403;-77
2021/03/24 07:11:36;;;;;;;16.55;11.23;;;8.40;60.90;;;;;;5073040;28;20055;-77
2021/03/24 07:14:41;;;;;;;18.65;11.55;;;8.60;60.60;;;;;;4999018;28;20034;-78
2021/03/24 07:17:33;;;;;;;22.65;14.02;;;8.20;62.30;;;;;;5011468;28;20046;-77
2021/03/24 07:20:11;;;;;;;14.55;9.98;;;8.30;61.40;;;;;;5071685;28;20497;-77
2021/03/24 07:23:20;;;;;;;15.85;10.82;;;8.60;61.00;;;;;;5074165;28;20419;-77
2021/03/24 07:26:13;;;;;;;15.00;12.55;;;8.50;61.80;;;;;;5056677;28;20052;-77
2021/03/24 07:29:05;;;;;;;19.08;11.82;;;8.40;62.40;;;;;;5072005;28;20047;-77
2021/03/24 07:31:43;;;;;;;19.77;12.73;;;8.50;62.20;;;;;;5075309;28;20052;-79
2021/03/24 07:34:14;;;;;;;26.65;11.85;;;9.20;61.90;;;;;;5074399;28;20494;-79
2021/03/24 07:37:07;;;;;;;15.73;11.02;;;9.80;59.20;;;;;;5057544;28;20052;-79
2021/03/24 07:39:38;;;;;;;18.33;11.63;;;9.80;58.70;;;;;;5069083;28;20064;-78
2021/03/24 07:42:26;;;;;;;16.10;11.65;;;9.70;58.80;;;;;;5055720;28;20494;-79
2021/03/24 07:45:24;;;;;;;23.30;12.82;;;9.00;62.20;;;;;;5055219;28;20045;-79
2021/03/24 07:48:01;;;;;;;18.02;12.95;;;9.60;60.20;;;;;;5054976;28;20487;-79
2021/03/24 07:50:50;;;;;;;14.93;12.13;;;10.00;58.60;;;;;;5055365;28;20403;-79
2021/03/24 07:53:35;;;;;;;16.10;11.40;;;11.70;52.60;;;;;;5056821;28;20048;-79
2021/03/24 07:56:06;;;;;;;23.75;10.93;;;12.40;51.00;;;;;;5069615;28;20044;-80
2021/03/24 07:59:03;;;;;;;19.38;14.25;;;12.60;48.10;;;;;;5069428;28;20068;-79
2021/03/24 08:01:55;;;;;;;18.60;12.45;;;13.00;46.50;;;;;;5045628;28;20049;-79
2021/03/24 08:04:38;;;;;;;23.40;15.57;;;13.20;44.60;;;;;;5062274;28;20388;-79
2021/03/24 08:07:29;;;;;;;20.25;12.43;;;13.70;46.10;;;;;;5074546;28;20653;-79
2021/03/24 08:10:22;;;;;;;27.20;15.40;;;13.90;44.60;;;;;;5075131;28;20060;-79
2021/03/24 08:13:19;;;;;;;16.42;10.88;;;13.20;47.40;;;;;;5074591;28;20040;-79
2021/03/24 08:15:59;;;;;;;18.92;10.52;;;13.20;46.00;;;;;;5067600;28;20041;-79
2021/03/24 08:18:48;;;;;;;15.13;10.23;;;13.50;46.10;;;;;;5072946;28;20055;-79
2021/03/24 08:21:43;;;;;;;16.65;12.68;;;14.40;43.50;;;;;;5074276;28;20411;-79
2021/03/24 08:24:20;;;;;;;17.65;11.57;;;13.00;45.40;;;;;;5074047;28;20517;-79
2021/03/24 08:26:55;;;;;;;17.38;12.27;;;11.90;48.90;;;;;;5073628;28;20048;-79
2021/03/24 08:29:47;;;;;;;20.52;13.68;;;12.20;47.80;;;;;;5071549;28;20059;-79
2021/03/24 08:32:53;;;;;;;19.95;11.10;;;12.90;46.80;;;;;;5071498;28;20037;-79
2021/03/24 08:35:24;;;;;;;16.38;10.65;;;12.40;45.60;;;;;;5066814;28;20041;-78
2021/03/24 08:38:16;;;;;;;17.20;11.38;;;12.60;47.20;;;;;;5055529;28;20053;-79
2021/03/24 08:41:01;;;;;;;22.92;12.45;;;13.10;44.30;;;;;;5072275;28;20503;-79
2021/03/24 08:43:45;;;;;;;18.92;12.07;;;12.70;47.60;;;;;;5068361;28;20542;-79
2021/03/24 08:46:54;;;;;;;18.10;11.07;;;12.90;47.00;;;;;;5071676;28;20043;-79
2021/03/24 08:49:26;;;;;;;24.17;13.80;;;13.50;46.40;;;;;;5061987;28;20047;-79
2021/03/24 08:52:15;;;;;;;23.65;12.52;;;13.50;45.20;;;;;;5072541;28;20051;-79
2021/03/24 08:55:04;;;;;;;21.17;11.43;;;13.70;44.00;;;;;;5070404;28;20056;-79
2021/03/24 08:57:32;;;;;;;17.40;10.73;;;13.00;47.00;;;;;;5053680;28;20045;-79
2021/03/24 09:00:33;;;;;;;17.40;12.25;;;13.00;47.20;;;;;;5048734;28;20052;-79
2021/03/24 09:03:17;;;;;;;22.67;11.02;;;13.10;49.90;;;;;;5047218;28;20053;-79
2021/03/24 09:06:08;;;;;;;21.27;12.13;;;13.60;48.10;;;;;;5049193;28;20048;-79
2021/03/24 09:09:01;;;;;;;15.23;11.88;;;12.70;48.60;;;;;;5060144;28;20049;-79
2021/03/24 09:12:00;;;;;;;19.17;11.97;;;11.10;54.30;;;;;;5068068;28;20033;-79
2021/03/24 09:14:41;;;;;;;14.60;10.45;;;10.40;55.10;;;;;;5069378;28;20307;-79
2021/03/24 09:17:38;;;;;;;17.38;13.60;;;10.40;55.10;;;;;;5067505;28;20041;-79
2021/03/24 09:20:44;;;;;;;14.35;10.10;;;9.60;59.70;;;;;;5063159;28;20040;-79
2021/03/24 09:23:47;;;;;;;16.67;11.27;;;9.50;62.70;;;;;;5066861;28;20049;-79
2021/03/24 09:26:26;;;;;;;21.02;12.30;;;8.90;62.30;;;;;;5068767;28;20067;-79
2021/03/24 09:29:32;;;;;;;17.58;10.77;;;8.60;67.00;;;;;;5066758;28;20056;-76
2021/03/24 09:32:36;;;;;;;22.33;11.40;;;8.30;65.20;;;;;;5067417;28;20044;-76
2021/03/24 09:35:10;;;;;;;17.40;11.60;;;8.20;62.90;;;;;;5067339;28;20060;-76
2021/03/24 09:38:06;;;;;;;16.85;11.80;;;8.50;65.00;;;;;;5051048;28;20059;-79
2021/03/24 09:40:40;;;;;;;16.75;10.82;;;8.50;65.60;;;;;;5065934;28;20052;-78
2021/03/24 09:43:17;;;;;;;16.15;11.90;;;8.30;66.20;;;;;;5068525;27;20055;-79
2021/03/24 09:46:08;;;;;;;23.48;11.55;;;8.10;63.80;;;;;;5067384;28;20059;-79
2021/03/24 09:48:55;;;;;;;;;;;8.20;68.30;;;;;;5066295;28;20048;-79
2021/03/24 09:51:41;;;;;;;18.02;12.60;;;8.50;65.20;;;;;;5066677;27;19927;-79
2021/03/24 09:54:22;;;;;;;16.58;10.70;;;8.50;66.00;;;;;;5044815;28;20041;-78
2021/03/24 09:57:11;;;;;;;17.67;10.68;;;8.10;64.50;;;;;;5054791;28;20036;-78
2021/03/24 09:59:51;;;;;;;15.90;12.60;;;7.80;66.00;;;;;;5068788;28;20052;-78
2021/03/24 10:02:31;;;;;;;16.52;12.02;;;8.20;66.40;;;;;;5065224;28;20048;-78
2021/03/24 10:05:25;;;;;;;19.60;13.20;;;8.20;69.70;;;;;;5065800;28;20059;-78
2021/03/24 10:08:00;;;;;;;17.02;13.10;;;8.60;67.50;;;;;;5066783;28;20502;-78
2021/03/24 10:10:34;;;;;;;17.75;10.05;;;9.00;66.50;;;;;;5065100;28;20052;-78
2021/03/24 10:13:21;;;;;;;20.33;11.05;;;9.10;63.50;;;;;;5070446;28;20044;-79
2021/03/24 10:15:58;;;;;;;21.30;15.65;;;9.00;63.90;;;;;;5051949;28;20057;-79
2021/03/24 10:19:02;;;;;;;19.42;11.70;;;9.00;66.40;;;;;;5056824;28;20055;-78
2021/03/24 10:21:49;;;;;;;18.20;11.88;;;8.50;66.90;;;;;;5059330;28;20055;-78
2021/03/24 10:24:28;;;;;;;16.30;12.23;;;8.90;66.00;;;;;;5061883;28;20521;-78
2021/03/24 10:27:12;;;;;;;16.05;10.63;;;8.90;72.20;;;;;;5066747;28;20052;-78
2021/03/24 10:30:25;;;;;;;16.98;11.68;;;9.10;65.80;;;;;;5071217;28;20388;-78
2021/03/24 10:33:10;;;;;;;16.98;12.25;;;9.30;64.50;;;;;;5074864;28;20037;-78
2021/03/24 10:36:04;;;;;;;13.00;10.73;;;9.20;63.90;;;;;;5073732;28;20514;-76
2021/03/24 10:38:48;;;;;;;11.23;8.90;;;9.40;63.80;;;;;;5083239;28;20072;-79
2021/03/24 10:41:30;;;;;;;19.00;10.82;;;9.40;66.50;;;;;;5069594;28;20059;-79
2021/03/24 10:44:24;;;;;;;17.02;13.15;;;9.70;63.60;;;;;;5055791;28;20052;-79
2021/03/24 10:47:03;;;;;;;16.58;10.98;;;9.50;62.40;;;;;;5051572;28;20059;-79
2021/03/24 10:49:39;;;;;;;17.27;10.55;;;9.30;64.20;;;;;;5064667;28;20044;-77
2021/03/24 10:52:24;;;;;;;17.85;10.63;;;9.30;72.00;;;;;;5072397;28;20063;-77
2021/03/24 10:54:59;;;;;;;14.07;10.90;;;9.30;67.70;;;;;;5063623;28;20406;-77
2021/03/24 10:57:47;;;;;;;17.58;10.63;;;9.50;70.00;;;;;;5061279;28;20547;-77
2021/03/24 11:00:23;;;;;;;17.25;10.80;;;9.50;66.10;;;;;;5054081;28;20064;-77
2021/03/24 11:03:04;;;;;;;17.17;10.32;;;9.60;68.60;;;;;;5052872;28;20060;-76
2021/03/24 11:06:05;;;;;;;14.48;9.73;;;9.50;68.20;;;;;;5054057;28;20037;-76
2021/03/24 11:08:42;;;;;;;17.80;10.68;;;9.40;64.10;;;;;;5045351;28;20045;-77
2021/03/24 11:11:18;;;;;;;17.30;10.70;;;9.00;66.80;;;;;;5054240;28;20056;-77
2021/03/24 11:13:58;;;;;;;22.85;10.57;;;9.20;66.30;;;;;;5054053;28;20064;-77
2021/03/24 11:16:52;;;;;;;15.63;10.35;;;9.60;63.50;;;;;;5054099;28;20044;-77
2021/03/24 11:19:28;;;;;;;14.07;8.88;;;9.80;60.90;;;;;;5062328;28;20057;-78
2021/03/24 11:22:13;;;;;;;11.88;8.45;;;9.80;61.50;;;;;;5061477;28;20048;-78
2021/03/24 11:25:01;;;;;;;12.18;8.15;;;10.20;66.00;;;;;;5065349;28;20061;-76
2021/03/24 11:27:35;;;;;;;14.18;9.40;;;10.30;65.40;;;;;;5059793;28;20061;-76
2021/03/24 11:30:11;;;;;;;16.27;9.35;;;10.50;67.50;;;;;;5071890;28;20498;-79
2021/03/24 11:32:45;;;;;;;16.90;11.52;;;10.50;63.00;;;;;;5074227;28;20033;-79
2021/03/24 11:35:39;;;;;;;10.65;7.78;;;10.70;64.80;;;;;;5074953;28;20044;-78
2021/03/24 11:38:10;;;;;;;15.98;8.35;;;10.70;61.40;;;;;;5073924;28;20048;-77
2021/03/24 11:40:49;;;;;;;9.43;6.93;;;10.40;63.70;;;;;;5073931;28;20736;-78
2021/03/24 11:43:20;;;;;;;13.38;7.00;;;10.80;63.70;;;;;;5073911;28;20057;-78
2021/03/24 11:46:04;;;;;;;14.48;7.25;;;11.00;61.60;;;;;;5073510;28;20403;-78
2021/03/24 11:48:53;;;;;;;13.43;7.03;;;11.10;58.60;;;;;;5073617;28;20738;-76
2021/03/24 11:51:58;;;;;;;10.95;7.03;;;11.10;56.20;;;;;;5068474;28;20064;-77
2021/03/24 11:54:53;;;;;;;8.48;6.95;;;11.30;57.50;;;;;;5065533;28;20033;-77
2021/03/24 11:57:38;;;;;;;6.32;5.55;;;11.00;50.50;;;;;;5071026;28;20040;-79
2021/03/24 12:00:32;;;;;;;8.82;6.03;;;10.70;51.40;;;;;;5067913;28;20760;-77
2021/03/24 12:03:08;;;;;;;8.52;4.93;;;10.60;56.80;;;;;;5070570;28;20119;-75
2021/03/24 12:05:59;;;;;;;11.57;6.28;;;10.90;52.60;;;;;;5064916;28;20037;-75
2021/03/24 12:08:56;;;;;;;9.30;6.38;;;10.80;52.30;;;;;;5062939;28;20047;-75
2021/03/24 12:11:27;;;;;;;8.68;4.22;;;10.60;52.10;;;;;;5059578;28;20067;-75
2021/03/24 12:14:14;;;;;;;10.35;5.40;;;10.80;55.80;;;;;;5060608;28;20518;-75
2021/03/24 12:16:50;;;;;;;18.13;5.35;;;11.10;49.80;;;;;;5052320;28;20048;-75
2021/03/24 12:19:35;;;;;;;5.57;4.55;;;10.90;49.50;;;;;;5068009;28;20049;-75
2021/03/24 12:22:23;;;;;;;5.75;3.95;;;11.00;53.00;;;;;;5063379;28;20044;-76
2021/03/24 12:25:06;;;;;;;8.98;5.03;;;11.30;47.10;;;;;;5058305;28;20236;-75
2021/03/24 12:27:40;;;;;;;6.50;4.07;;;11.40;47.90;;;;;;5065762;28;20048;-75
2021/03/24 12:30:23;;;;;;;6.75;4.85;;;11.70;51.90;;;;;;5065364;28;20052;-75
2021/03/24 12:33:00;;;;;;;7.65;4.20;;;11.40;47.20;;;;;;5065611;28;20411;-75
2021/03/24 12:35:28;;;;;;;6.95;5.28;;;11.40;48.20;;;;;;5062854;28;20052;-75
2021/03/24 12:38:11;;;;;;;6.72;4.28;;;11.40;48.70;;;;;;5064302;28;20052;-75
2021/03/24 12:40:58;;;;;;;6.90;5.15;;;11.80;49.50;;;;;;5058155;28;20049;-75
2021/03/24 12:43:28;;;;;;;5.60;4.45;;;11.80;52.10;;;;;;5059136;27;20509;-75
2021/03/24 12:46:18;;;;;;;7.25;5.28;;;11.90;50.70;;;;;;5090423;28;20063;-75
2021/03/24 12:48:59;;;;;;;8.07;5.70;;;12.00;50.60;;;;;;5089354;28;20540;-75
2021/03/24 12:51:32;;;;;;;9.83;3.63;;;11.90;48.00;;;;;;5079468;28;20052;-75
2021/03/24 12:54:02;;;;;;;5.85;3.60;;;11.90;49.60;;;;;;5069955;28;20503;-75
2021/03/24 12:56:54;;;;;;;5.57;3.72;;;11.90;48.50;;;;;;5069924;28;20052;-75
2021/03/24 12:59:40;;;;;;;11.25;4.97;;;12.00;52.00;;;;;;5071170;28;20399;-75
2021/03/24 13:02:13;;;;;;;10.00;4.93;;;12.10;50.50;;;;;;5070575;28;20059;-74
2021/03/24 13:05:13;;;;;;;4.70;4.05;;;12.40;51.20;;;;;;5070639;28;20052;-74
2021/03/24 13:08:01;;;;;;;9.90;4.68;;;12.60;50.80;;;;;;5070686;28;20037;-75
2021/03/24 13:10:47;;;;;;;7.05;5.25;;;12.40;51.30;;;;;;5068154;28;20049;-75
2021/03/24 13:13:18;;;;;;;10.57;6.05;;;12.60;50.10;;;;;;5057596;28;20056;-75
2021/03/24 13:15:55;;;;;;;7.30;6.47;;;12.30;48.20;;;;;;5069008;28;20044;-75
2021/03/24 13:18:42;;;;;;;5.32;4.15;;;12.20;50.40;;;;;;5054532;28;20052;-76
2021/03/24 13:21:41;;;;;;;9.38;5.70;;;12.30;48.30;;;;;;5066236;28;20427;-75
2021/03/24 13:24:59;;;;;;;10.52;5.78;;;12.30;51.90;;;;;;5057202;28;20053;-75
2021/03/24 13:27:47;;;;;;;14.93;6.40;;;12.40;51.90;;;;;;5061357;28;20041;-76
2021/03/24 13:30:24;;;;;;;7.93;4.35;;;12.80;50.60;;;;;;5074016;28;20045;-75
2021/03/24 13:33:08;;;;;;;11.73;5.97;;;12.90;47.00;;;;;;5063676;28;20398;-75
2021/03/24 13:35:44;;;;;;;5.20;4.20;;;13.10;46.00;;;;;;5070341;28;20048;-75
2021/03/24 13:38:30;;;;;;;8.75;4.50;;;13.00;48.30;;;;;;5069278;28;20068;-76
2021/03/24 13:41:00;;;;;;;7.43;4.65;;;13.10;44.90;;;;;;5069459;28;20075;-76
2021/03/24 13:43:34;;;;;;;9.20;5.05;;;13.00;45.70;;;;;;5070612;28;20060;-76
2021/03/24 13:46:14;;;;;;;8.13;5.43;;;13.20;45.70;;;;;;5070058;28;20036;-76
2021/03/24 13:48:47;;;;;;;5.57;3.97;;;13.10;45.10;;;;;;5069952;28;20526;-76